Terminal Aerodrome Forecast
Issued by NWS Cleveland, OH

Home | Current Version | Previous Version | Text Only | Print | Product List | Glossary On
Versions: 1 2 3 4 5 6 7 8 9 10 11 12 13 14 15
000
FTUS41 KCLE 210300 AAB
TAFTOL
TAF AMD
KTOL 210307Z 2103/2124 22009KT P6SM VCSH SCT012 BKN045
      TEMPO 2107/2111 4SM -SHRA BR SCT009 BKN018
     FM211100 24008KT 4SM BR VCSH SCT007 OVC015
     FM211500 28012KT P6SM BKN035
     FM211900 32015G22KT P6SM VCSH BKN035=

USA.gov is the U.S. government's official web portal to all federal, state and local government web resources and services.